createdAt,value
2022-10-31T00:00:40.951Z,969.60
2022-10-31T00:01:40.922Z,969.58
2022-10-31T00:02:40.896Z,969.58
2022-10-31T00:03:40.838Z,969.60
2022-10-31T00:04:40.843Z,969.63
2022-10-31T00:05:40.809Z,969.66
2022-10-31T00:06:40.813Z,969.63
2022-10-31T00:07:40.804Z,969.60
2022-10-31T00:08:40.771Z,969.56
2022-10-31T00:09:40.782Z,969.57
2022-10-31T00:10:40.802Z,969.60
2022-10-31T00:11:40.745Z,969.52
2022-10-31T00:12:40.718Z,969.52
2022-10-31T00:13:40.703Z,969.51
2022-10-31T00:14:40.710Z,969.50
2022-10-31T00:15:40.713Z,969.51
2022-10-31T00:16:40.682Z,969.47
2022-10-31T00:17:40.724Z,969.51
2022-10-31T00:18:40.655Z,969.52
2022-10-31T00:19:40.664Z,969.53
2022-10-31T00:20:40.649Z,969.54
2022-10-31T00:21:40.620Z,969.52
2022-10-31T00:22:40.615Z,969.51
2022-10-31T00:23:40.625Z,969.44
2022-10-31T00:24:40.598Z,969.55
2022-10-31T00:25:40.588Z,969.50
2022-10-31T00:26:40.603Z,969.54
2022-10-31T00:27:40.552Z,969.51
2022-10-31T00:28:40.550Z,969.51
2022-10-31T00:29:40.527Z,969.46
2022-10-31T00:30:40.555Z,969.44
2022-10-31T00:31:40.527Z,969.46
2022-10-31T00:32:40.490Z,969.47
2022-10-31T00:33:40.498Z,969.50
2022-10-31T00:34:40.465Z,969.51
2022-10-31T00:35:40.491Z,969.48
2022-10-31T00:36:40.449Z,969.54
2022-10-31T00:37:40.457Z,969.47
2022-10-31T00:38:40.425Z,969.49
2022-10-31T00:39:40.429Z,969.50
2022-10-31T00:40:40.430Z,969.55
2022-10-31T00:41:40.404Z,969.56
2022-10-31T00:42:40.406Z,969.55
2022-10-31T00:43:40.383Z,969.61
2022-10-31T00:44:40.398Z,969.59
2022-10-31T00:45:40.363Z,969.63
2022-10-31T00:46:40.336Z,969.68
2022-10-31T00:47:40.322Z,969.57
2022-10-31T00:48:40.314Z,969.60
2022-10-31T00:49:40.299Z,969.65
2022-10-31T00:50:40.352Z,969.61
2022-10-31T00:51:40.280Z,969.62
2022-10-31T00:52:40.282Z,969.60
2022-10-31T00:53:40.260Z,969.61
2022-10-31T00:54:40.260Z,969.66
2022-10-31T00:55:40.234Z,969.69
2022-10-31T00:56:40.241Z,969.73
2022-10-31T00:57:40.253Z,969.72
2022-10-31T00:58:40.232Z,969.69
2022-10-31T00:59:40.197Z,969.69
2022-10-31T01:00:40.193Z,969.69
2022-10-31T01:01:40.332Z,969.68
2022-10-31T01:02:40.309Z,969.70
2022-10-31T01:03:40.188Z,969.68
2022-10-31T01:04:40.130Z,969.66
2022-10-31T01:05:40.136Z,969.68
2022-10-31T01:06:40.139Z,969.68
2022-10-31T01:07:40.113Z,969.65
2022-10-31T01:08:40.117Z,969.63
2022-10-31T01:09:40.095Z,969.66
2022-10-31T01:10:40.069Z,969.67
2022-10-31T01:11:40.068Z,969.63
2022-10-31T01:12:40.069Z,969.62
2022-10-31T01:13:40.083Z,969.62
2022-10-31T01:14:40.075Z,969.62
2022-10-31T01:15:40.026Z,969.57
2022-10-31T01:16:40.006Z,969.64
2022-10-31T01:17:40.022Z,969.57
2022-10-31T01:18:39.974Z,969.55
2022-10-31T01:19:39.999Z,969.59
2022-10-31T01:20:39.958Z,969.58
2022-10-31T01:21:39.983Z,969.58
2022-10-31T01:22:39.950Z,969.51
2022-10-31T01:23:39.918Z,969.51
2022-10-31T01:24:39.912Z,969.55
2022-10-31T01:25:39.928Z,969.55
2022-10-31T01:26:39.903Z,969.54
2022-10-31T01:27:39.877Z,969.53
2022-10-31T01:28:39.888Z,969.55
2022-10-31T01:29:39.857Z,969.56
2022-10-31T01:30:39.881Z,969.54
2022-10-31T01:31:39.827Z,969.59
2022-10-31T01:32:39.873Z,969.56
2022-10-31T01:33:39.817Z,969.55
2022-10-31T01:34:39.827Z,969.54
2022-10-31T01:35:39.819Z,969.53
2022-10-31T01:36:39.771Z,969.53
2022-10-31T01:37:39.811Z,969.52
2022-10-31T01:38:39.759Z,969.53
2022-10-31T01:39:39.760Z,969.50
2022-10-31T01:40:39.727Z,969.49
2022-10-31T01:41:39.725Z,969.50
2022-10-31T01:42:39.730Z,969.47
2022-10-31T01:43:39.705Z,969.54
2022-10-31T01:44:39.687Z,969.50
2022-10-31T01:45:40.320Z,969.49
2022-10-31T01:46:39.687Z,969.44
2022-10-31T01:47:39.660Z,969.43
2022-10-31T01:48:39.678Z,969.48
2022-10-31T01:49:39.644Z,969.44
2022-10-31T01:50:39.632Z,969.47
2022-10-31T01:51:39.634Z,969.44
2022-10-31T01:52:39.627Z,969.44
2022-10-31T01:53:39.606Z,969.41
2022-10-31T01:54:39.610Z,969.44
2022-10-31T01:55:39.590Z,969.41
2022-10-31T01:56:39.573Z,969.44
2022-10-31T01:57:39.578Z,969.44
2022-10-31T01:58:39.532Z,969.45
2022-10-31T01:59:39.541Z,969.43
2022-10-31T02:00:39.521Z,969.42
2022-10-31T02:01:39.723Z,969.45
2022-10-31T02:02:39.718Z,969.45
2022-10-31T02:03:39.477Z,969.45
2022-10-31T02:04:39.473Z,969.49
2022-10-31T02:05:39.483Z,969.45
2022-10-31T02:06:39.452Z,969.50
2022-10-31T02:07:39.468Z,969.47
2022-10-31T02:08:39.443Z,969.50
2022-10-31T02:09:39.445Z,969.47
2022-10-31T02:10:39.417Z,969.49
2022-10-31T02:11:39.388Z,969.45
2022-10-31T02:12:39.404Z,969.44
2022-10-31T02:13:39.384Z,969.46
2022-10-31T02:14:39.372Z,969.52
2022-10-31T02:15:39.345Z,969.47
2022-10-31T02:16:39.386Z,969.50
2022-10-31T02:17:39.329Z,969.47
2022-10-31T02:18:39.325Z,969.45
2022-10-31T02:19:39.304Z,969.52
2022-10-31T02:20:39.336Z,969.50
2022-10-31T02:21:39.286Z,969.49
2022-10-31T02:22:39.285Z,969.44
2022-10-31T02:23:39.265Z,969.48
2022-10-31T02:24:39.262Z,969.45
2022-10-31T02:25:39.240Z,969.51
2022-10-31T02:26:39.245Z,969.45
2022-10-31T02:27:39.231Z,969.46
2022-10-31T02:28:39.195Z,969.46
2022-10-31T02:29:39.179Z,969.48
2022-10-31T02:30:39.183Z,969.47
2022-10-31T02:31:39.193Z,969.45
2022-10-31T02:32:39.158Z,969.40
2022-10-31T02:33:39.208Z,969.48
2022-10-31T02:34:39.158Z,969.48
2022-10-31T02:35:39.116Z,969.40
2022-10-31T02:36:39.122Z,969.45
2022-10-31T02:37:39.119Z,969.45
2022-10-31T02:38:39.099Z,969.45
2022-10-31T02:39:39.067Z,969.45
2022-10-31T02:40:39.119Z,969.42
2022-10-31T02:41:39.055Z,969.46
2022-10-31T02:42:39.061Z,969.53
2022-10-31T02:43:39.033Z,969.48
2022-10-31T02:44:39.038Z,969.45
2022-10-31T02:45:39.091Z,969.52
2022-10-31T02:46:38.988Z,969.46
2022-10-31T02:47:38.994Z,969.52
2022-10-31T02:48:39.001Z,969.46
2022-10-31T02:49:38.967Z,969.49
2022-10-31T02:50:39.012Z,969.48
2022-10-31T02:51:38.984Z,969.53
2022-10-31T02:52:38.926Z,969.53
2022-10-31T02:53:38.932Z,969.50
2022-10-31T02:54:38.929Z,969.49
2022-10-31T02:55:38.936Z,969.55
2022-10-31T02:56:38.879Z,969.55
2022-10-31T02:57:38.891Z,969.49
2022-10-31T02:58:38.862Z,969.56
2022-10-31T02:59:38.864Z,969.55
2022-10-31T03:00:38.891Z,969.55
2022-10-31T03:01:38.927Z,969.52
2022-10-31T03:02:38.953Z,969.49
2022-10-31T03:03:38.826Z,969.54
2022-10-31T03:04:38.871Z,969.60
2022-10-31T03:05:38.796Z,969.55
2022-10-31T03:06:38.808Z,969.55
2022-10-31T03:07:38.788Z,969.55
2022-10-31T03:08:38.757Z,969.51
2022-10-31T03:09:38.755Z,969.61
2022-10-31T03:10:38.754Z,969.56
2022-10-31T03:11:38.738Z,969.58
2022-10-31T03:12:38.758Z,969.56
2022-10-31T03:13:38.687Z,969.58
2022-10-31T03:14:38.701Z,969.58
2022-10-31T03:15:38.694Z,969.61
2022-10-31T03:16:38.690Z,969.52
2022-10-31T03:17:38.678Z,969.55
2022-10-31T03:18:38.681Z,969.56
2022-10-31T03:19:38.619Z,969.54
2022-10-31T03:20:38.622Z,969.54
2022-10-31T03:21:38.612Z,969.55
2022-10-31T03:22:38.631Z,969.50
2022-10-31T03:23:38.612Z,969.55
2022-10-31T03:24:38.632Z,969.53
2022-10-31T03:25:38.558Z,969.56
2022-10-31T03:26:38.546Z,969.58
2022-10-31T03:27:38.571Z,969.62
2022-10-31T03:28:38.548Z,969.58
2022-10-31T03:29:38.563Z,969.55
2022-10-31T03:30:38.499Z,969.54
2022-10-31T03:31:38.504Z,969.62
2022-10-31T03:32:38.881Z,969.56
2022-10-31T03:33:38.512Z,969.52
2022-10-31T03:34:38.497Z,969.51
2022-10-31T03:35:38.458Z,969.51
2022-10-31T03:36:38.432Z,969.51
2022-10-31T03:37:38.446Z,969.50
2022-10-31T03:38:38.488Z,969.49
2022-10-31T03:39:38.417Z,969.57
2022-10-31T03:40:38.401Z,969.49
2022-10-31T03:41:38.375Z,969.53
2022-10-31T03:42:38.435Z,969.50
2022-10-31T03:43:38.359Z,969.60
2022-10-31T03:44:38.362Z,969.56
2022-10-31T03:45:38.367Z,969.54
2022-10-31T03:46:38.361Z,969.60
2022-10-31T03:47:38.309Z,969.53
2022-10-31T03:48:38.310Z,969.57
2022-10-31T03:49:38.291Z,969.55
2022-10-31T03:50:38.398Z,969.57
2022-10-31T03:51:38.296Z,969.58
2022-10-31T03:52:38.307Z,969.55
2022-10-31T03:53:38.241Z,969.52
2022-10-31T03:54:38.264Z,969.49
2022-10-31T03:55:38.252Z,969.49
2022-10-31T03:56:38.273Z,969.47
2022-10-31T03:57:38.232Z,969.44
2022-10-31T03:58:38.382Z,969.48
2022-10-31T03:59:38.178Z,969.50
2022-10-31T04:00:38.296Z,969.41
2022-10-31T04:01:38.379Z,969.43
2022-10-31T04:02:38.380Z,969.44
2022-10-31T04:03:38.194Z,969.46
2022-10-31T04:04:38.121Z,969.50
2022-10-31T04:05:38.116Z,969.48
2022-10-31T04:06:38.113Z,969.46
2022-10-31T04:07:38.133Z,969.47
2022-10-31T04:08:38.125Z,969.47
2022-10-31T04:09:38.118Z,969.48
2022-10-31T04:10:38.069Z,969.48
2022-10-31T04:11:38.056Z,969.47
2022-10-31T04:12:38.074Z,969.50
2022-10-31T04:13:38.059Z,969.49
2022-10-31T04:14:38.045Z,969.51
2022-10-31T04:15:38.002Z,969.45
2022-10-31T04:16:38.055Z,969.52
2022-10-31T04:17:38.066Z,969.57
2022-10-31T04:18:37.982Z,969.51
2022-10-31T04:19:37.985Z,969.50
2022-10-31T04:20:37.985Z,969.54
2022-10-31T04:21:37.989Z,969.50
2022-10-31T04:22:37.926Z,969.51
2022-10-31T04:23:37.931Z,969.52
2022-10-31T04:24:37.925Z,969.48
2022-10-31T04:25:37.914Z,969.52
2022-10-31T04:26:37.949Z,969.54
2022-10-31T04:27:37.861Z,969.48
2022-10-31T04:28:37.867Z,969.52
2022-10-31T04:29:37.849Z,969.53
2022-10-31T04:30:37.860Z,969.53
2022-10-31T04:31:37.851Z,969.58
2022-10-31T04:32:37.865Z,969.53
2022-10-31T04:33:37.811Z,969.53
2022-10-31T04:34:37.808Z,969.53
2022-10-31T04:35:37.788Z,969.52
2022-10-31T04:36:37.796Z,969.55
2022-10-31T04:37:37.791Z,969.54
2022-10-31T04:38:37.772Z,969.56
2022-10-31T04:39:37.737Z,969.56
2022-10-31T04:40:37.750Z,969.58
2022-10-31T04:41:37.728Z,969.62
2022-10-31T04:42:37.753Z,969.61
2022-10-31T04:43:37.750Z,969.66
2022-10-31T04:44:37.678Z,969.63
2022-10-31T04:45:37.674Z,969.66
2022-10-31T04:46:37.661Z,969.67
2022-10-31T04:47:37.668Z,969.63
2022-10-31T04:48:37.659Z,969.71
2022-10-31T04:49:37.670Z,969.65
2022-10-31T04:50:37.640Z,969.65
2022-10-31T04:51:37.622Z,969.62
2022-10-31T04:52:37.598Z,969.57
2022-10-31T04:53:37.596Z,969.59
2022-10-31T04:54:37.606Z,969.62
2022-10-31T04:55:37.550Z,969.52
2022-10-31T04:56:37.624Z,969.61
2022-10-31T04:57:37.532Z,969.60
2022-10-31T04:58:37.555Z,969.58
2022-10-31T04:59:37.532Z,969.62
2022-10-31T05:00:37.543Z,969.53
2022-10-31T05:01:37.594Z,969.56
2022-10-31T05:02:40.703Z,969.52
2022-10-31T05:03:38.498Z,969.48
2022-10-31T05:04:37.492Z,969.52
2022-10-31T05:05:37.472Z,969.53
2022-10-31T05:06:37.481Z,969.53
2022-10-31T05:07:37.419Z,969.53
2022-10-31T05:08:37.466Z,969.52
2022-10-31T05:09:37.412Z,969.53
2022-10-31T05:10:37.414Z,969.50
2022-10-31T05:11:37.407Z,969.49
2022-10-31T05:12:37.423Z,969.54
2022-10-31T05:13:37.391Z,969.50
2022-10-31T05:14:37.359Z,969.57
2022-10-31T05:15:37.346Z,969.51
2022-10-31T05:16:37.345Z,969.52
2022-10-31T05:17:37.319Z,969.58
2022-10-31T05:18:37.322Z,969.54
2022-10-31T05:20:47.134Z,969.52
2022-10-31T05:21:47.089Z,969.61
2022-10-31T05:22:47.087Z,969.57
2022-10-31T05:23:48.523Z,969.50
2022-10-31T05:24:47.050Z,969.54
2022-10-31T05:25:47.054Z,969.52
2022-10-31T05:26:47.061Z,969.50
2022-10-31T05:27:47.016Z,969.46
2022-10-31T05:28:47.021Z,969.49
2022-10-31T05:29:47.057Z,969.49
2022-10-31T05:30:47.012Z,969.51
2022-10-31T05:31:46.980Z,969.44
2022-10-31T05:32:47.024Z,969.48
2022-10-31T05:33:46.964Z,969.49
2022-10-31T05:34:46.961Z,969.46
2022-10-31T05:35:46.942Z,969.48
2022-10-31T05:36:46.925Z,969.49
2022-10-31T05:37:46.921Z,969.48
2022-10-31T05:38:46.929Z,969.46
2022-10-31T05:39:46.898Z,969.47
2022-10-31T05:40:46.875Z,969.46
2022-10-31T05:41:46.859Z,969.39
2022-10-31T05:42:46.863Z,969.43
2022-10-31T05:43:46.837Z,969.41
2022-10-31T05:44:46.873Z,969.46
2022-10-31T05:45:46.830Z,969.48
2022-10-31T05:46:46.817Z,969.47
2022-10-31T05:47:46.837Z,969.52
2022-10-31T05:48:46.815Z,969.47
2022-10-31T05:49:46.801Z,969.46
2022-10-31T05:50:46.759Z,969.49
2022-10-31T05:51:46.748Z,969.44
2022-10-31T05:52:46.762Z,969.51
2022-10-31T05:53:46.735Z,969.48
2022-10-31T05:54:46.750Z,969.51
2022-10-31T05:55:46.740Z,969.47
2022-10-31T05:56:46.717Z,969.43
2022-10-31T05:57:46.684Z,969.46
2022-10-31T05:58:46.705Z,969.50
2022-10-31T05:59:48.937Z,969.52
2022-10-31T06:00:47.671Z,969.47
2022-10-31T06:01:46.693Z,969.45
2022-10-31T06:02:46.624Z,969.53
2022-10-31T06:03:46.716Z,969.49
2022-10-31T06:04:46.767Z,969.51
2022-10-31T06:05:50.643Z,969.48
2022-10-31T06:06:47.579Z,969.45
2022-10-31T06:07:46.566Z,969.47
2022-10-31T06:08:46.574Z,969.53
2022-10-31T06:09:46.564Z,969.54
2022-10-31T06:10:46.546Z,969.53
2022-10-31T06:11:46.543Z,969.57
2022-10-31T06:12:46.563Z,969.58
2022-10-31T06:13:46.503Z,969.58
2022-10-31T06:14:46.496Z,969.63
2022-10-31T06:15:46.478Z,969.63
2022-10-31T06:16:46.490Z,969.64
2022-10-31T06:17:46.483Z,969.63
2022-10-31T06:18:46.463Z,969.64
2022-10-31T06:19:46.478Z,969.67
2022-10-31T06:20:46.440Z,969.59
2022-10-31T06:21:46.439Z,969.66
2022-10-31T06:22:46.414Z,969.68
2022-10-31T06:23:46.393Z,969.64
2022-10-31T06:24:46.376Z,969.61
2022-10-31T06:25:46.388Z,969.64
2022-10-31T06:26:46.354Z,969.60
2022-10-31T06:27:46.356Z,969.59
2022-10-31T06:28:46.351Z,969.55
2022-10-31T06:29:46.322Z,969.54
2022-10-31T06:30:46.322Z,969.54
2022-10-31T06:31:46.307Z,969.60
2022-10-31T06:32:46.291Z,969.49
2022-10-31T06:33:46.330Z,969.53
2022-10-31T06:34:46.303Z,969.50
2022-10-31T06:35:46.253Z,969.48
2022-10-31T06:36:46.243Z,969.48
2022-10-31T06:37:48.266Z,969.50
2022-10-31T06:38:46.227Z,969.49
2022-10-31T06:39:46.229Z,969.49
2022-10-31T06:40:46.202Z,969.54
2022-10-31T06:41:46.216Z,969.57
2022-10-31T06:42:46.238Z,969.51
2022-10-31T06:43:46.164Z,969.59
2022-10-31T06:44:46.157Z,969.53
2022-10-31T06:45:46.140Z,969.53
2022-10-31T06:46:46.167Z,969.55
2022-10-31T06:48:11.251Z,969.53
2022-10-31T06:48:47.139Z,969.59
2022-10-31T06:49:46.115Z,969.53
2022-10-31T06:50:46.119Z,969.56
2022-10-31T06:51:46.076Z,969.54
2022-10-31T06:52:46.062Z,969.53
2022-10-31T06:53:46.051Z,969.50
2022-10-31T06:54:46.059Z,969.54
2022-10-31T06:55:46.037Z,969.59
2022-10-31T06:56:46.052Z,969.55
2022-10-31T06:57:46.043Z,969.58
2022-10-31T06:58:46.104Z,969.61
2022-10-31T06:59:45.991Z,969.58
2022-10-31T07:00:46.018Z,969.66
2022-10-31T07:01:46.170Z,969.66
2022-10-31T07:02:45.977Z,969.71
2022-10-31T07:03:45.941Z,969.73
2022-10-31T07:04:45.925Z,969.69
2022-10-31T07:05:45.944Z,969.66
2022-10-31T07:06:50.907Z,969.68
2022-10-31T07:07:46.904Z,969.73
2022-10-31T07:08:46.132Z,969.71
2022-10-31T07:09:45.881Z,969.69
2022-10-31T07:10:45.861Z,969.68
2022-10-31T07:11:45.874Z,969.67
2022-10-31T07:12:45.869Z,969.66
2022-10-31T07:13:45.846Z,969.67
2022-10-31T07:14:45.829Z,969.68
2022-10-31T07:15:45.802Z,969.68
2022-10-31T07:16:45.796Z,969.65
2022-10-31T07:17:45.882Z,969.63
2022-10-31T07:18:45.792Z,969.63
2022-10-31T07:19:45.791Z,969.74
2022-10-31T07:20:45.745Z,969.66
2022-10-31T07:21:45.819Z,969.64
2022-10-31T07:22:50.446Z,969.65
2022-10-31T07:23:45.749Z,969.65
2022-10-31T07:24:45.740Z,969.67
2022-10-31T07:25:45.725Z,969.63
2022-10-31T07:26:45.771Z,969.66
2022-10-31T07:27:45.667Z,969.66
2022-10-31T07:28:45.683Z,969.64
2022-10-31T07:29:45.658Z,969.60
2022-10-31T07:30:45.665Z,969.62
2022-10-31T07:31:45.639Z,969.62
2022-10-31T07:32:45.611Z,969.56
2022-10-31T07:33:45.645Z,969.56
2022-10-31T07:34:47.489Z,969.57
2022-10-31T07:35:45.590Z,969.54
2022-10-31T07:36:45.572Z,969.54
2022-10-31T07:37:45.571Z,969.55
2022-10-31T07:38:45.546Z,969.52
2022-10-31T07:39:45.555Z,969.56
2022-10-31T07:40:45.535Z,969.56
2022-10-31T07:41:45.532Z,969.61
2022-10-31T07:42:45.529Z,969.61
2022-10-31T07:43:45.553Z,969.56
2022-10-31T07:44:45.512Z,969.60
2022-10-31T07:45:45.495Z,969.57
2022-10-31T07:46:45.476Z,969.62
2022-10-31T07:47:45.464Z,969.54
2022-10-31T07:48:45.470Z,969.56
2022-10-31T07:49:45.420Z,969.56
2022-10-31T07:50:45.415Z,969.59
2022-10-31T07:51:46.592Z,969.54
2022-10-31T07:52:45.398Z,969.54
2022-10-31T07:53:46.307Z,969.53
2022-10-31T07:54:45.414Z,969.51
2022-10-31T07:55:45.351Z,969.50
2022-10-31T07:56:45.338Z,969.51
2022-10-31T07:57:45.370Z,969.53
2022-10-31T07:58:45.336Z,969.54
2022-10-31T07:59:45.316Z,969.53
2022-10-31T08:00:45.513Z,969.53
2022-10-31T08:01:45.290Z,969.47
2022-10-31T08:02:45.283Z,969.51
2022-10-31T08:03:45.278Z,969.54
2022-10-31T08:04:45.277Z,969.53
2022-10-31T08:05:45.285Z,969.60
2022-10-31T08:06:45.226Z,969.52
2022-10-31T08:07:45.240Z,969.49
2022-10-31T08:08:45.221Z,969.49
2022-10-31T08:09:45.229Z,969.49
2022-10-31T08:10:45.220Z,969.51
2022-10-31T08:11:45.169Z,969.48
2022-10-31T08:12:45.185Z,969.48
2022-10-31T08:13:45.147Z,969.44
2022-10-31T08:14:45.151Z,969.43
2022-10-31T08:15:45.192Z,969.44
2022-10-31T08:16:45.130Z,969.40
2022-10-31T08:17:45.132Z,969.47
2022-10-31T08:18:45.108Z,969.48
2022-10-31T08:19:45.085Z,969.39
2022-10-31T08:20:45.113Z,969.40
2022-10-31T08:21:45.435Z,969.38
2022-10-31T08:22:45.043Z,969.43
2022-10-31T08:23:45.033Z,969.43
2022-10-31T08:24:45.037Z,969.34
2022-10-31T08:25:45.071Z,969.37
2022-10-31T08:26:45.019Z,969.32
2022-10-31T08:27:45.002Z,969.33
2022-10-31T08:28:45.035Z,969.32
2022-10-31T08:29:44.970Z,969.30
2022-10-31T08:30:44.990Z,969.30
2022-10-31T08:31:44.964Z,969.31
2022-10-31T08:32:44.957Z,969.33
2022-10-31T08:33:44.924Z,969.31
2022-10-31T08:34:44.977Z,969.27
2022-10-31T08:35:44.916Z,969.28
2022-10-31T08:36:44.914Z,969.31
2022-10-31T08:37:44.887Z,969.28
2022-10-31T08:38:44.906Z,969.28
2022-10-31T08:39:44.853Z,969.29
2022-10-31T08:40:44.879Z,969.25
2022-10-31T08:41:44.863Z,969.27
2022-10-31T08:42:44.851Z,969.28
2022-10-31T08:43:44.850Z,969.27
2022-10-31T08:44:44.795Z,969.24
2022-10-31T08:45:44.852Z,969.24
2022-10-31T08:46:44.779Z,969.23
2022-10-31T08:47:44.765Z,969.17
2022-10-31T08:48:44.759Z,969.20
2022-10-31T08:49:44.776Z,969.13
2022-10-31T08:50:44.728Z,969.14
2022-10-31T08:51:44.740Z,969.15
2022-10-31T08:53:04.141Z,969.12
2022-10-31T08:53:45.746Z,969.08
2022-10-31T08:54:44.696Z,969.07
2022-10-31T08:55:44.678Z,969.10
2022-10-31T08:56:44.661Z,969.08
2022-10-31T08:57:44.698Z,969.03
2022-10-31T08:58:44.657Z,969.01
2022-10-31T08:59:44.677Z,968.99
2022-10-31T09:00:44.732Z,969.03
2022-10-31T09:01:44.735Z,968.94
2022-10-31T09:02:44.632Z,968.99
2022-10-31T09:03:44.596Z,968.97
2022-10-31T09:04:44.597Z,969.00
2022-10-31T09:05:44.650Z,968.93
2022-10-31T09:07:07.943Z,968.96
2022-10-31T09:07:45.541Z,968.94
2022-10-31T09:08:44.531Z,968.92
2022-10-31T09:09:44.535Z,968.88
2022-10-31T09:10:44.814Z,968.89
2022-10-31T09:11:44.528Z,968.91
2022-10-31T09:12:44.489Z,968.90
2022-10-31T09:13:44.491Z,968.92
2022-10-31T09:14:44.466Z,968.86
2022-10-31T09:15:44.446Z,968.87
2022-10-31T09:16:44.452Z,968.91
2022-10-31T09:17:44.448Z,968.92
2022-10-31T09:18:44.411Z,968.87
2022-10-31T09:19:44.403Z,968.83
2022-10-31T09:20:44.399Z,968.83
2022-10-31T09:21:44.386Z,968.81
2022-10-31T09:22:44.419Z,968.80
2022-10-31T09:23:44.361Z,968.82
2022-10-31T09:24:44.346Z,968.80
2022-10-31T09:25:50.056Z,968.78
2022-10-31T09:26:45.347Z,968.75
2022-10-31T09:27:44.357Z,968.75
2022-10-31T09:28:44.322Z,968.78
2022-10-31T09:29:44.371Z,968.80
2022-10-31T09:30:44.306Z,968.75
2022-10-31T09:31:45.181Z,968.74
2022-10-31T09:32:44.259Z,968.71
2022-10-31T09:33:44.268Z,968.74
2022-10-31T09:34:44.295Z,968.75
2022-10-31T09:35:44.224Z,968.65
2022-10-31T09:36:44.211Z,968.62
2022-10-31T09:37:44.215Z,968.66
2022-10-31T09:38:44.195Z,968.69
2022-10-31T09:39:44.205Z,968.63
2022-10-31T09:40:44.210Z,968.66
2022-10-31T09:41:44.155Z,968.65
2022-10-31T09:42:44.212Z,968.66
2022-10-31T09:43:44.136Z,968.68
2022-10-31T09:44:44.137Z,968.65
2022-10-31T09:45:44.137Z,968.62
2022-10-31T09:46:44.150Z,968.65
2022-10-31T09:47:44.156Z,968.67
2022-10-31T09:48:44.091Z,968.69
2022-10-31T09:49:44.124Z,968.60
2022-10-31T09:50:44.081Z,968.64
2022-10-31T09:51:46.908Z,968.60
2022-10-31T09:52:45.073Z,968.63
2022-10-31T09:53:44.020Z,968.65
2022-10-31T09:54:44.016Z,968.63
2022-10-31T09:55:44.039Z,968.64
2022-10-31T09:56:44.003Z,968.66
2022-10-31T09:57:44.007Z,968.69
2022-10-31T09:58:44.025Z,968.57
2022-10-31T09:59:43.969Z,968.59
2022-10-31T10:00:44.002Z,968.58
2022-10-31T10:01:44.054Z,968.52
2022-10-31T10:02:43.943Z,968.57
2022-10-31T10:03:43.953Z,968.51
2022-10-31T10:04:43.897Z,968.54
2022-10-31T10:05:43.895Z,968.59
2022-10-31T10:06:43.879Z,968.58
2022-10-31T10:07:44.048Z,968.58
2022-10-31T10:08:43.853Z,968.56
2022-10-31T10:09:43.890Z,968.54
2022-10-31T10:10:43.829Z,968.56
2022-10-31T10:11:43.843Z,968.53
2022-10-31T10:12:43.820Z,968.56
2022-10-31T10:13:43.814Z,968.57
2022-10-31T10:14:43.795Z,968.60
2022-10-31T10:15:43.839Z,968.59
2022-10-31T10:16:43.764Z,968.57
2022-10-31T10:17:43.803Z,968.61
2022-10-31T10:18:43.764Z,968.59
2022-10-31T10:19:43.729Z,968.58
2022-10-31T10:20:43.735Z,968.56
2022-10-31T10:21:43.709Z,968.63
2022-10-31T10:22:43.708Z,968.58
2022-10-31T10:23:43.714Z,968.55
2022-10-31T10:24:43.700Z,968.57
2022-10-31T10:25:43.663Z,968.51
2022-10-31T10:26:43.670Z,968.51
2022-10-31T10:27:43.662Z,968.47
2022-10-31T10:28:43.642Z,968.45
2022-10-31T10:29:43.635Z,968.40
2022-10-31T10:30:43.842Z,968.36
2022-10-31T10:31:43.597Z,968.41
2022-10-31T10:32:46.570Z,968.41
2022-10-31T10:33:43.596Z,968.38
2022-10-31T10:34:43.564Z,968.38
2022-10-31T10:35:43.579Z,968.33
2022-10-31T10:36:43.576Z,968.35
2022-10-31T10:37:43.540Z,968.33
2022-10-31T10:38:43.550Z,968.35
2022-10-31T10:39:43.529Z,968.32
2022-10-31T10:40:43.509Z,968.30
2022-10-31T10:41:43.505Z,968.32
2022-10-31T10:42:43.514Z,968.36
2022-10-31T10:43:43.502Z,968.29
2022-10-31T10:44:43.450Z,968.28
2022-10-31T10:45:43.465Z,968.26
2022-10-31T10:46:43.446Z,968.23
2022-10-31T10:47:43.441Z,968.25
2022-10-31T10:48:43.412Z,968.25
2022-10-31T10:49:43.408Z,968.26
2022-10-31T10:50:43.905Z,968.21
2022-10-31T10:52:26.714Z,968.23
2022-10-31T10:52:49.289Z,968.21
2022-10-31T10:53:44.343Z,968.19
2022-10-31T10:54:43.348Z,968.16
2022-10-31T10:55:43.321Z,968.22
2022-10-31T10:56:43.345Z,968.20
2022-10-31T10:57:43.314Z,968.11
2022-10-31T10:58:43.311Z,968.12
2022-10-31T10:59:43.286Z,968.14
2022-10-31T11:00:43.368Z,968.07
2022-10-31T11:01:43.261Z,968.04
2022-10-31T11:02:46.437Z,968.03
2022-10-31T11:03:44.279Z,968.00
2022-10-31T11:04:43.258Z,967.95
2022-10-31T11:05:43.237Z,967.95
2022-10-31T11:06:43.197Z,967.98
2022-10-31T11:07:43.211Z,967.98
2022-10-31T11:08:43.180Z,967.97
2022-10-31T11:09:43.181Z,967.98
2022-10-31T11:10:43.155Z,967.97
2022-10-31T11:11:43.139Z,967.93
2022-10-31T11:12:43.134Z,967.94
2022-10-31T11:13:43.155Z,967.92
2022-10-31T11:14:43.125Z,967.92
2022-10-31T11:15:43.114Z,967.93
2022-10-31T11:16:43.132Z,967.99
2022-10-31T11:17:43.070Z,967.99
2022-10-31T11:18:43.072Z,967.93
2022-10-31T11:19:43.056Z,967.94
2022-10-31T11:20:43.048Z,967.88
2022-10-31T11:21:43.057Z,967.85
2022-10-31T11:22:43.014Z,967.83
2022-10-31T11:23:43.001Z,967.87
2022-10-31T11:24:43.021Z,967.81
2022-10-31T11:25:43.003Z,967.84
2022-10-31T11:26:43.003Z,967.81
2022-10-31T11:27:42.955Z,967.75
2022-10-31T11:28:42.944Z,967.76
2022-10-31T11:29:42.942Z,967.78
2022-10-31T11:30:42.923Z,967.74
2022-10-31T11:31:42.941Z,967.80
2022-10-31T11:32:42.942Z,967.75
2022-10-31T11:33:42.935Z,967.76
2022-10-31T11:34:42.880Z,967.73
2022-10-31T11:35:42.893Z,967.72
2022-10-31T11:36:42.865Z,967.66
2022-10-31T11:37:42.861Z,967.70
2022-10-31T11:38:42.870Z,967.68
2022-10-31T11:39:42.825Z,967.68
2022-10-31T11:40:42.820Z,967.64
2022-10-31T11:41:42.795Z,967.63
2022-10-31T11:42:42.798Z,967.61
2022-10-31T11:43:42.800Z,967.63
2022-10-31T11:44:42.780Z,967.63
2022-10-31T11:45:42.759Z,967.63
2022-10-31T11:46:42.751Z,967.58
2022-10-31T11:47:42.738Z,967.61
2022-10-31T11:48:42.742Z,967.56
2022-10-31T11:49:42.704Z,967.53
2022-10-31T11:50:42.693Z,967.57
2022-10-31T11:51:42.693Z,967.53
2022-10-31T11:52:42.718Z,967.59
2022-10-31T11:53:42.725Z,967.48
2022-10-31T11:54:42.668Z,967.48
2022-10-31T11:55:42.650Z,967.52
2022-10-31T11:56:42.626Z,967.47
2022-10-31T11:57:42.622Z,967.47
2022-10-31T11:58:42.607Z,967.48
2022-10-31T11:59:42.620Z,967.49
2022-10-31T12:00:42.584Z,967.45
2022-10-31T12:01:45.133Z,967.45
2022-10-31T12:02:42.652Z,967.48
2022-10-31T12:03:42.545Z,967.48
2022-10-31T12:04:42.554Z,967.47
2022-10-31T12:05:42.556Z,967.42
2022-10-31T12:06:42.515Z,967.41
2022-10-31T12:07:42.499Z,967.39
2022-10-31T12:08:42.539Z,967.35
2022-10-31T12:09:42.498Z,967.40
2022-10-31T12:10:42.520Z,967.42
2022-10-31T12:11:42.494Z,967.35
2022-10-31T12:12:42.463Z,967.30
2022-10-31T12:13:42.437Z,967.28
2022-10-31T12:14:42.434Z,967.30
2022-10-31T12:15:42.422Z,967.26
2022-10-31T12:16:42.412Z,967.32
2022-10-31T12:17:42.419Z,967.33
2022-10-31T12:18:42.383Z,967.29
2022-10-31T12:19:42.377Z,967.32
2022-10-31T12:20:42.374Z,967.34
2022-10-31T12:21:42.356Z,967.32
2022-10-31T12:22:42.365Z,967.28
2022-10-31T12:23:42.327Z,967.28
2022-10-31T12:24:42.327Z,967.29
2022-10-31T12:25:42.367Z,967.30
2022-10-31T12:26:42.292Z,967.25
2022-10-31T12:27:42.350Z,967.30
2022-10-31T12:28:45.396Z,967.25
2022-10-31T12:29:43.277Z,967.18